METAR Data
IDs: Format: Raw Decoded Include TAF

Data at: 0019 UTC 30 May 2020

METAR for:KAWG (Washington Muni, IA, US)
Text:KAWG 300015Z AUTO 33010KT 10SM CLR 19/10 A3011 RMK AO2
Temperature: 19.0°C ( 66°F)
Dewpoint: 10.0°C ( 50°F) [RH = 56%]
Pressure (altimeter):30.11 inches Hg (1019.7 mb)
Winds:from the NNW (330 degrees) at 12 MPH (10 knots; 5.1 m/s)
Visibility:10 or more sm (16+ km)
Ceiling:at least 12,000 feet AGL
Clouds:sky clear below 12,000 feet AGL
QC Flag:automated observation with no human augmentation